createdAt,value
2023-05-20T00:02:24.940Z,80.54
2023-05-20T00:04:52.941Z,80.48
2023-05-20T00:07:20.859Z,80.72
2023-05-20T00:09:48.740Z,80.34
2023-05-20T00:12:16.591Z,80.35
2023-05-20T00:14:44.612Z,80.35
2023-05-20T00:17:13.906Z,80.60
2023-05-20T00:19:41.843Z,80.98
2023-05-20T00:22:09.930Z,81.10
2023-05-20T00:24:37.875Z,80.98
2023-05-20T00:27:06.009Z,80.51
2023-05-20T00:29:35.124Z,80.35
2023-05-20T00:32:03.218Z,80.96
2023-05-20T00:34:32.592Z,80.47
2023-05-20T00:37:00.481Z,80.94
2023-05-20T00:39:30.308Z,80.84
2023-05-20T00:42:00.454Z,81.01
2023-05-20T00:44:28.357Z,81.14
2023-05-20T00:46:56.879Z,81.32
2023-05-20T00:49:24.806Z,81.10
2023-05-20T00:51:54.172Z,81.17
2023-05-20T00:54:23.259Z,81.58
2023-05-20T00:56:51.556Z,81.54
2023-05-20T00:59:19.986Z,81.63
2023-05-20T01:01:48.513Z,82.13
2023-05-20T01:04:16.605Z,82.13
2023-05-20T01:06:44.472Z,81.92
2023-05-20T01:09:14.795Z,82.20
2023-05-20T01:11:49.253Z,82.38
2023-05-20T01:14:20.138Z,81.98
2023-05-20T01:16:51.031Z,82.24
2023-05-20T01:19:29.813Z,82.51
2023-05-20T01:22:00.316Z,82.53
2023-05-20T01:24:29.588Z,82.50
2023-05-20T01:26:58.234Z,82.55
2023-05-20T01:29:26.462Z,82.49
2023-05-20T01:32:02.122Z,82.28
2023-05-20T01:34:31.384Z,82.32
2023-05-20T01:36:59.537Z,82.60
2023-05-20T01:39:30.798Z,82.53
2023-05-20T01:41:59.530Z,83.16
2023-05-20T01:44:28.237Z,83.07
2023-05-20T01:46:56.299Z,82.84
2023-05-20T01:49:24.341Z,82.83
2023-05-20T01:51:52.240Z,82.84
2023-05-20T01:54:20.162Z,83.32
2023-05-20T01:56:51.372Z,82.87
2023-05-20T01:59:19.348Z,82.87
2023-05-20T02:01:47.389Z,83.44
2023-05-20T02:04:19.283Z,83.04
2023-05-20T02:06:48.023Z,83.08
2023-05-20T02:09:17.876Z,83.11
2023-05-20T02:11:46.101Z,83.21
2023-05-20T02:14:15.512Z,83.80
2023-05-20T02:16:43.757Z,84.05
2023-05-20T02:19:14.444Z,84.08
2023-05-20T02:21:44.051Z,83.95
2023-05-20T02:24:11.995Z,84.60
2023-05-20T02:26:40.004Z,84.57
2023-05-20T02:29:09.578Z,84.86
2023-05-20T02:31:38.849Z,84.65
2023-05-20T02:34:06.780Z,85.01
2023-05-20T02:36:34.812Z,84.48
2023-05-20T02:39:03.571Z,84.95
2023-05-20T02:41:32.579Z,84.68
2023-05-20T02:44:00.755Z,85.34
2023-05-20T02:46:30.410Z,85.47
2023-05-20T02:48:59.730Z,85.85
2023-05-20T02:51:28.268Z,85.88
2023-05-20T02:53:56.196Z,85.60
2023-05-20T02:56:24.686Z,85.83
2023-05-20T02:58:52.668Z,85.86
2023-05-20T03:01:20.808Z,85.58
2023-05-20T03:03:49.022Z,85.88
2023-05-20T03:06:18.381Z,86.10
2023-05-20T03:08:46.496Z,86.26
2023-05-20T03:11:16.148Z,86.29
2023-05-20T03:13:44.039Z,86.56
2023-05-20T03:16:13.141Z,86.33
2023-05-20T03:18:41.239Z,86.16
2023-05-20T03:21:09.258Z,86.46
2023-05-20T03:23:38.528Z,86.10
2023-05-20T03:26:07.036Z,86.52
2023-05-20T03:28:35.152Z,86.80
2023-05-20T03:31:04.571Z,86.36
2023-05-20T03:33:36.047Z,86.35
2023-05-20T03:36:05.258Z,86.32
2023-05-20T03:38:33.586Z,86.67
2023-05-20T03:41:03.054Z,87.29
2023-05-20T03:43:31.919Z,86.75
2023-05-20T03:45:59.932Z,86.73
2023-05-20T03:48:27.846Z,86.60
2023-05-20T03:50:55.818Z,86.85
2023-05-20T03:53:23.764Z,87.13
2023-05-20T03:55:52.140Z,86.91
2023-05-20T03:58:22.328Z,86.94
2023-05-20T04:00:51.304Z,86.98
2023-05-20T04:03:19.446Z,87.11
2023-05-20T04:05:49.051Z,87.18
2023-05-20T04:08:22.084Z,87.46
2023-05-20T04:10:50.068Z,87.44
2023-05-20T04:13:18.005Z,87.69
2023-05-20T04:15:48.584Z,87.90
2023-05-20T04:18:17.051Z,87.78
2023-05-20T04:20:45.720Z,87.20
2023-05-20T04:23:15.500Z,87.30
2023-05-20T04:25:44.652Z,87.63
2023-05-20T04:28:14.153Z,87.58
2023-05-20T04:30:42.322Z,87.74
2023-05-20T04:33:13.140Z,87.65
2023-05-20T04:35:42.845Z,87.72
2023-05-20T04:38:12.205Z,87.64
2023-05-20T04:40:40.805Z,87.57
2023-05-20T04:43:10.540Z,87.75
2023-05-20T04:45:40.398Z,87.20
2023-05-20T04:48:09.584Z,87.60
2023-05-20T04:50:41.918Z,87.51
2023-05-20T04:53:09.855Z,87.64
2023-05-20T04:55:39.096Z,87.26
2023-05-20T04:58:08.257Z,86.87
2023-05-20T05:00:36.302Z,87.06
2023-05-20T05:03:04.728Z,87.13
2023-05-20T05:05:35.339Z,87.06
2023-05-20T05:08:04.942Z,86.92
2023-05-20T05:10:33.717Z,86.57
2023-05-20T05:13:01.681Z,86.19
2023-05-20T05:15:29.829Z,86.33
2023-05-20T05:17:58.019Z,86.46
2023-05-20T05:20:26.447Z,86.60
2023-05-20T05:22:54.438Z,86.17
2023-05-20T05:25:23.761Z,86.77
2023-05-20T05:27:51.723Z,86.51
2023-05-20T05:30:19.798Z,86.03
2023-05-20T05:32:48.337Z,86.03
2023-05-20T05:35:16.791Z,85.92
2023-05-20T05:37:44.722Z,85.81
2023-05-20T05:40:13.960Z,86.10
2023-05-20T05:42:43.313Z,86.00
2023-05-20T05:45:12.397Z,85.78
2023-05-20T05:47:40.687Z,85.50
2023-05-20T05:50:10.125Z,85.08
2023-05-20T05:52:38.639Z,85.09
2023-05-20T05:55:10.641Z,85.05
2023-05-20T05:57:38.604Z,84.94
2023-05-20T06:00:10.790Z,85.25
2023-05-20T06:02:48.187Z,84.21
2023-05-20T06:05:30.188Z,84.58
2023-05-20T06:07:58.758Z,83.97
2023-05-20T06:10:27.252Z,84.19
2023-05-20T06:12:56.409Z,83.51
2023-05-20T06:15:26.353Z,83.38
2023-05-20T06:17:54.275Z,83.19
2023-05-20T06:20:22.345Z,82.92
2023-05-20T06:22:50.348Z,82.81
2023-05-20T06:25:18.726Z,82.77
2023-05-20T06:27:47.409Z,82.57
2023-05-20T06:30:18.927Z,82.06
2023-05-20T06:32:48.314Z,81.09
2023-05-20T06:35:17.617Z,81.70
2023-05-20T06:37:45.558Z,81.46
2023-05-20T06:40:14.120Z,81.33
2023-05-20T06:42:44.225Z,80.71
2023-05-20T06:45:13.914Z,80.61
2023-05-20T06:47:53.353Z,80.14
2023-05-20T06:50:21.619Z,80.92
2023-05-20T06:52:49.850Z,80.89
2023-05-20T06:55:18.096Z,80.51
2023-05-20T06:57:46.003Z,79.95
2023-05-20T07:00:15.284Z,79.44
2023-05-20T07:02:45.050Z,79.55
2023-05-20T07:05:16.919Z,79.43
2023-05-20T07:07:44.936Z,79.55
2023-05-20T07:10:13.029Z,78.73
2023-05-20T07:12:42.174Z,78.75
2023-05-20T07:15:10.996Z,78.69
2023-05-20T07:17:40.008Z,77.76
2023-05-20T07:20:09.187Z,77.58
2023-05-20T07:22:38.748Z,77.09
2023-05-20T07:25:21.805Z,76.65
2023-05-20T07:27:50.793Z,76.84
2023-05-20T07:30:19.950Z,76.55
2023-05-20T07:33:07.794Z,76.23
2023-05-20T07:35:36.824Z,76.37
2023-05-20T07:38:06.869Z,76.38
2023-05-20T07:40:36.865Z,76.66
2023-05-20T07:43:05.070Z,76.67
2023-05-20T07:45:33.384Z,76.24
2023-05-20T07:48:03.016Z,75.58
2023-05-20T07:50:31.535Z,74.95
2023-05-20T07:52:59.488Z,74.37
2023-05-20T07:55:31.763Z,74.75
2023-05-20T07:58:00.934Z,74.53
2023-05-20T08:00:30.696Z,74.91
2023-05-20T08:03:03.958Z,73.83
2023-05-20T08:05:43.100Z,73.53
2023-05-20T08:08:11.573Z,73.52
2023-05-20T08:10:55.417Z,72.82
2023-05-20T08:13:26.764Z,72.42
2023-05-20T08:15:55.211Z,72.87
2023-05-20T08:18:23.141Z,72.14
2023-05-20T08:20:51.308Z,72.46
2023-05-20T08:23:19.288Z,71.85
2023-05-20T08:25:48.312Z,71.23
2023-05-20T08:28:19.133Z,70.52
2023-05-20T08:30:48.560Z,71.54
2023-05-20T08:33:16.835Z,70.27
2023-05-20T08:35:44.807Z,70.28
2023-05-20T08:38:12.661Z,70.77
2023-05-20T08:40:40.605Z,69.15
2023-05-20T08:43:08.657Z,68.53
2023-05-20T08:45:39.356Z,69.13
2023-05-20T08:48:12.897Z,67.89
2023-05-20T08:50:40.876Z,68.48
2023-05-20T08:53:09.038Z,69.00
2023-05-20T08:55:43.059Z,67.54
2023-05-20T08:58:11.281Z,67.46
2023-05-20T09:00:42.030Z,67.24
2023-05-20T09:03:10.077Z,67.47
2023-05-20T09:05:38.271Z,66.99
2023-05-20T09:08:07.937Z,65.91
2023-05-20T09:10:37.152Z,65.77
2023-05-20T09:13:06.185Z,66.30
2023-05-20T09:15:35.815Z,66.64
2023-05-20T09:18:08.010Z,65.81
2023-05-20T09:20:38.155Z,65.81
2023-05-20T09:23:08.906Z,65.42
2023-05-20T09:25:38.280Z,66.44
2023-05-20T09:28:07.551Z,65.48
2023-05-20T09:30:35.662Z,66.98
2023-05-20T09:33:07.853Z,65.32
2023-05-20T09:35:38.095Z,66.35
2023-05-20T09:38:07.590Z,66.85
2023-05-20T09:40:37.727Z,66.32
2023-05-20T09:43:07.276Z,66.00
2023-05-20T09:45:36.687Z,65.67
2023-05-20T09:48:09.225Z,65.77
2023-05-20T09:50:37.867Z,65.45
2023-05-20T09:53:06.509Z,65.72
2023-05-20T09:55:34.717Z,63.95
2023-05-20T09:58:04.131Z,63.64
2023-05-20T10:00:33.037Z,63.95
2023-05-20T10:03:02.026Z,63.38
2023-05-20T10:05:34.335Z,62.80
2023-05-20T10:08:37.279Z,62.98
2023-05-20T10:11:14.869Z,62.85
2023-05-20T10:13:53.627Z,62.36
2023-05-20T10:16:31.110Z,63.28
2023-05-20T10:19:06.590Z,62.11
2023-05-20T10:21:36.439Z,63.25
2023-05-20T10:24:08.453Z,62.52
2023-05-20T10:26:37.656Z,62.13
2023-05-20T10:29:16.577Z,62.49
2023-05-20T10:31:50.631Z,61.57
2023-05-20T10:34:19.989Z,61.37
2023-05-20T10:36:59.625Z,61.64
2023-05-20T10:39:28.946Z,60.84
2023-05-20T10:42:08.239Z,61.35
2023-05-20T10:44:43.552Z,61.92
2023-05-20T10:49:45.290Z,61.08
2023-05-20T10:52:15.813Z,60.22
2023-05-20T10:54:49.397Z,59.14
2023-05-20T10:57:20.485Z,58.93
2023-05-20T10:59:49.364Z,58.35
2023-05-20T11:02:18.956Z,57.95
2023-05-20T11:04:48.024Z,57.79
2023-05-20T11:07:28.402Z,58.53
2023-05-20T11:09:56.364Z,58.49
2023-05-20T11:12:25.435Z,58.36
2023-05-20T11:14:53.529Z,59.28
2023-05-20T11:17:21.749Z,58.63
2023-05-20T11:19:50.043Z,59.39
2023-05-20T11:22:17.922Z,59.22
2023-05-20T11:24:47.577Z,57.27
2023-05-20T11:27:15.659Z,56.49
2023-05-20T11:29:43.829Z,57.81
2023-05-20T11:32:11.820Z,58.48
2023-05-20T11:34:40.714Z,58.30
2023-05-20T11:37:09.047Z,57.18
2023-05-20T11:39:38.095Z,55.55
2023-05-20T11:42:07.565Z,56.31
2023-05-20T11:44:35.418Z,56.14
2023-05-20T11:47:04.580Z,54.62
2023-05-20T11:49:40.844Z,56.29
2023-05-20T11:52:11.760Z,55.92
2023-05-20T11:54:40.221Z,56.03
2023-05-20T11:57:09.510Z,55.54
2023-05-20T11:59:37.645Z,55.75
2023-05-20T12:02:05.584Z,55.26
2023-05-20T12:04:33.484Z,55.41
2023-05-20T12:07:01.891Z,55.29
2023-05-20T12:09:29.770Z,54.96
2023-05-20T12:11:57.686Z,54.12
2023-05-20T12:14:27.052Z,54.46
2023-05-20T12:16:55.170Z,53.60
2023-05-20T12:19:23.121Z,54.18
2023-05-20T12:21:52.717Z,54.33
2023-05-20T12:24:20.608Z,54.11
2023-05-20T12:26:48.872Z,53.35
2023-05-20T12:29:16.777Z,53.96
2023-05-20T12:31:46.046Z,54.31
2023-05-20T12:34:14.014Z,52.49
2023-05-20T12:36:42.385Z,54.21
2023-05-20T12:39:11.066Z,53.28
2023-05-20T12:41:39.100Z,53.74
2023-05-20T12:44:06.982Z,54.09
2023-05-20T12:46:35.099Z,53.64
2023-05-20T12:49:04.696Z,53.03
2023-05-20T12:51:32.588Z,52.63
2023-05-20T12:54:00.576Z,53.26
2023-05-20T12:56:28.537Z,52.15
2023-05-20T12:58:56.496Z,52.57
2023-05-20T13:01:24.493Z,52.06
2023-05-20T13:03:53.430Z,52.51
2023-05-20T13:06:22.694Z,52.65
2023-05-20T13:08:50.822Z,52.27
2023-05-20T13:11:18.699Z,52.35
2023-05-20T13:13:46.605Z,53.56
2023-05-20T13:16:16.668Z,52.26
2023-05-20T13:18:44.706Z,52.17
2023-05-20T13:21:12.607Z,52.37
2023-05-20T13:23:42.803Z,52.04
2023-05-20T13:26:11.073Z,51.85
2023-05-20T13:28:38.927Z,52.16
2023-05-20T13:31:07.747Z,51.63
2023-05-20T13:33:35.766Z,50.72
2023-05-20T13:36:03.908Z,50.79
2023-05-20T13:38:32.684Z,50.52
2023-05-20T13:41:03.171Z,50.89
2023-05-20T13:43:33.225Z,50.68
2023-05-20T13:46:01.306Z,50.52
2023-05-20T13:48:29.410Z,50.54
2023-05-20T13:50:59.723Z,50.77
2023-05-20T13:53:27.666Z,50.45
2023-05-20T13:55:55.741Z,50.06
2023-05-20T13:58:25.003Z,49.86
2023-05-20T14:00:53.734Z,50.29
2023-05-20T14:03:22.056Z,49.26
2023-05-20T14:05:50.026Z,47.98
2023-05-20T14:08:17.914Z,49.07
2023-05-20T14:10:45.764Z,50.07
2023-05-20T14:13:13.632Z,49.96
2023-05-20T14:15:43.735Z,49.69
2023-05-20T14:18:11.770Z,48.51
2023-05-20T14:20:39.770Z,48.31
2023-05-20T14:23:07.660Z,47.97
2023-05-20T14:25:36.489Z,47.57
2023-05-20T14:28:04.444Z,47.54
2023-05-20T14:30:32.597Z,47.63
2023-05-20T14:33:02.230Z,47.22
2023-05-20T14:35:30.215Z,47.29
2023-05-20T14:37:58.175Z,47.42
2023-05-20T14:40:26.078Z,47.28
2023-05-20T14:42:53.972Z,47.31
2023-05-20T14:45:21.847Z,47.66
2023-05-20T14:47:49.823Z,47.66
2023-05-20T14:50:19.200Z,47.72
2023-05-20T14:52:47.064Z,47.74
2023-05-20T14:55:14.970Z,48.27
2023-05-20T14:57:43.051Z,48.31
2023-05-20T15:00:14.678Z,48.45
2023-05-20T15:02:42.713Z,49.27
2023-05-20T15:05:11.972Z,48.74
2023-05-20T15:07:41.581Z,48.77
2023-05-20T15:10:10.085Z,48.85
2023-05-20T15:12:37.954Z,48.47
2023-05-20T15:15:06.838Z,48.67
2023-05-20T15:17:34.755Z,47.67
2023-05-20T15:20:02.981Z,47.37
2023-05-20T15:22:30.808Z,46.78
2023-05-20T15:25:00.043Z,46.55
2023-05-20T15:27:29.633Z,45.97
2023-05-20T15:29:57.582Z,45.67
2023-05-20T15:32:25.702Z,46.18
2023-05-20T15:34:53.673Z,45.65
2023-05-20T15:37:22.056Z,45.06
2023-05-20T15:39:50.001Z,44.28
2023-05-20T15:42:19.328Z,44.61
2023-05-20T15:44:47.350Z,44.68
2023-05-20T15:47:15.212Z,44.02
2023-05-20T15:49:43.204Z,44.16
2023-05-20T15:52:11.124Z,43.87
2023-05-20T15:54:39.038Z,44.47
2023-05-20T15:57:07.659Z,44.69
2023-05-20T15:59:37.007Z,44.10
2023-05-20T16:02:04.987Z,44.69
2023-05-20T16:04:33.639Z,45.35
2023-05-20T16:07:01.888Z,45.23
2023-05-20T16:09:29.887Z,46.17
2023-05-20T16:11:57.843Z,45.31
2023-05-20T16:14:25.862Z,45.06
2023-05-20T16:16:55.166Z,44.90
2023-05-20T16:19:23.260Z,44.69
2023-05-20T16:21:51.367Z,44.65
2023-05-20T16:24:19.271Z,45.24
2023-05-20T16:26:47.171Z,45.15
2023-05-20T16:29:16.645Z,45.51
2023-05-20T16:31:46.607Z,46.07
2023-05-20T16:34:16.863Z,47.49
2023-05-20T16:36:46.302Z,46.18
2023-05-20T16:39:14.681Z,46.41
2023-05-20T16:41:43.226Z,47.49
2023-05-20T16:44:11.487Z,47.89
2023-05-20T16:46:39.416Z,47.89
2023-05-20T16:49:07.418Z,47.90
2023-05-20T16:51:36.722Z,47.89
2023-05-20T16:54:04.972Z,47.94
2023-05-20T16:56:33.402Z,47.57
2023-05-20T16:59:01.290Z,47.45
2023-05-20T17:01:29.639Z,47.20
2023-05-20T17:03:57.685Z,47.67
2023-05-20T17:06:25.632Z,48.40
2023-05-20T17:08:54.957Z,48.54
2023-05-20T17:11:22.838Z,49.03
2023-05-20T17:13:50.715Z,49.34
2023-05-20T17:16:18.850Z,49.45
2023-05-20T17:18:48.312Z,51.69
2023-05-20T17:21:20.205Z,53.30
2023-05-20T17:23:48.138Z,53.97
2023-05-20T17:26:17.605Z,54.11
2023-05-20T17:28:45.531Z,54.44
2023-05-20T17:31:13.399Z,55.01
2023-05-20T17:33:41.329Z,55.53
2023-05-20T17:36:09.258Z,55.81
2023-05-20T17:38:37.170Z,56.43
2023-05-20T17:41:05.231Z,56.76
2023-05-20T17:43:34.737Z,57.01
2023-05-20T17:46:02.686Z,57.22
2023-05-20T17:48:30.595Z,57.49
2023-05-20T17:50:59.725Z,57.55
2023-05-20T17:53:27.543Z,58.16
2023-05-20T17:55:55.587Z,58.38
2023-05-20T17:58:25.144Z,58.31
2023-05-20T18:00:54.616Z,58.76
2023-05-20T18:03:23.096Z,59.17
2023-05-20T18:05:52.290Z,59.33
2023-05-20T18:08:21.732Z,59.32
2023-05-20T18:10:49.630Z,59.64
2023-05-20T18:13:17.490Z,59.95
2023-05-20T18:15:45.666Z,60.15
2023-05-20T18:18:15.190Z,60.42
2023-05-20T18:20:43.114Z,60.53
2023-05-20T18:23:11.515Z,60.65
2023-05-20T18:25:41.753Z,60.95
2023-05-20T18:28:11.213Z,61.35
2023-05-20T18:30:39.071Z,61.42
2023-05-20T18:33:07.375Z,61.65
2023-05-20T18:35:36.726Z,61.92
2023-05-20T18:38:04.682Z,62.10
2023-05-20T18:40:32.629Z,62.42
2023-05-20T18:43:00.532Z,62.65
2023-05-20T18:45:28.482Z,62.79
2023-05-20T18:47:59.253Z,63.18
2023-05-20T18:50:27.583Z,63.36
2023-05-20T18:52:56.964Z,63.67
2023-05-20T18:55:24.928Z,63.71
2023-05-20T18:57:52.920Z,63.86
2023-05-20T19:00:21.216Z,64.40
2023-05-20T19:02:49.166Z,64.35
2023-05-20T19:05:17.076Z,64.69
2023-05-20T19:07:45.020Z,64.97
2023-05-20T19:10:15.183Z,65.03
2023-05-20T19:12:43.698Z,65.51
2023-05-20T19:15:12.840Z,65.69
2023-05-20T19:17:40.805Z,66.10
2023-05-20T19:20:10.515Z,65.98
2023-05-20T19:22:38.731Z,66.38
2023-05-20T19:25:07.707Z,66.55
2023-05-20T19:27:36.970Z,66.74
2023-05-20T19:30:05.158Z,66.98
2023-05-20T19:32:33.238Z,67.15
2023-05-20T19:35:01.293Z,67.42
2023-05-20T19:37:29.287Z,67.73
2023-05-20T19:39:57.223Z,67.48
2023-05-20T19:42:25.163Z,67.71
2023-05-20T19:44:54.536Z,68.14
2023-05-20T19:47:22.795Z,68.14
2023-05-20T19:49:50.946Z,68.33
2023-05-20T19:52:19.971Z,68.90
2023-05-20T19:54:48.902Z,69.04
2023-05-20T19:57:16.983Z,69.33
2023-05-20T19:59:44.969Z,69.49
2023-05-20T20:02:14.827Z,69.62
2023-05-20T20:04:44.087Z,69.56
2023-05-20T20:07:12.237Z,69.85
2023-05-20T20:09:40.723Z,70.00
2023-05-20T20:12:09.291Z,70.23
2023-05-20T20:14:38.093Z,70.09
2023-05-20T20:17:06.241Z,70.43
2023-05-20T20:19:35.565Z,70.74
2023-05-20T20:22:03.670Z,70.58
2023-05-20T20:24:31.642Z,70.97
2023-05-20T20:26:59.719Z,71.22
2023-05-20T20:29:27.597Z,71.22
2023-05-20T20:31:56.041Z,71.72
2023-05-20T20:34:24.049Z,71.71
2023-05-20T20:36:54.797Z,71.49
2023-05-20T20:39:25.071Z,71.92
2023-05-20T20:41:54.491Z,72.06
2023-05-20T20:44:22.737Z,72.21
2023-05-20T20:46:51.504Z,72.38
2023-05-20T20:49:19.904Z,72.37
2023-05-20T20:51:48.558Z,72.46
2023-05-20T20:54:17.895Z,72.88
2023-05-20T20:56:47.144Z,72.88
2023-05-20T20:59:16.008Z,73.25
2023-05-20T21:01:45.075Z,72.72
2023-05-20T21:04:13.925Z,73.05
2023-05-20T21:06:45.835Z,73.52
2023-05-20T21:09:14.149Z,73.29
2023-05-20T21:11:45.186Z,73.47
2023-05-20T21:14:14.027Z,73.77
2023-05-20T21:16:43.139Z,73.57
2023-05-20T21:19:11.178Z,73.83
2023-05-20T21:21:39.655Z,74.00
2023-05-20T21:24:07.853Z,74.01
2023-05-20T21:26:35.803Z,74.07
2023-05-20T21:29:05.966Z,74.39
2023-05-20T21:31:33.948Z,74.26
2023-05-20T21:34:02.111Z,74.49
2023-05-20T21:36:30.686Z,74.74
2023-05-20T21:38:58.688Z,74.49
2023-05-20T21:41:27.244Z,74.53
2023-05-20T21:43:55.163Z,74.83
2023-05-20T21:46:24.434Z,74.97
2023-05-20T21:48:52.376Z,75.33
2023-05-20T21:51:20.260Z,75.33
2023-05-20T21:53:48.222Z,75.66
2023-05-20T21:56:16.196Z,75.61
2023-05-20T21:58:44.088Z,75.69
2023-05-20T22:01:12.082Z,75.74
2023-05-20T22:03:47.952Z,76.07
2023-05-20T22:06:17.616Z,76.11
2023-05-20T22:08:45.480Z,76.65
2023-05-20T22:11:13.362Z,76.62
2023-05-20T22:13:41.522Z,76.92
2023-05-20T22:16:09.998Z,77.19
2023-05-20T22:18:38.504Z,77.50
2023-05-20T22:21:07.881Z,77.66
2023-05-20T22:23:35.966Z,77.70
2023-05-20T22:26:04.896Z,77.99
2023-05-20T22:28:32.841Z,78.16
2023-05-20T22:31:00.690Z,78.33
2023-05-20T22:33:28.648Z,78.41
2023-05-20T22:35:58.086Z,79.08
2023-05-20T22:38:29.187Z,79.16
2023-05-20T22:40:57.032Z,79.06
2023-05-20T22:43:24.965Z,79.57
2023-05-20T22:45:52.889Z,79.70
2023-05-20T22:48:23.006Z,79.63
2023-05-20T22:50:51.188Z,80.40
2023-05-20T22:53:19.082Z,80.59
2023-05-20T22:55:48.440Z,80.90
2023-05-20T22:58:16.479Z,80.80
2023-05-20T23:00:44.979Z,81.06
2023-05-20T23:03:13.330Z,80.84
2023-05-20T23:05:41.236Z,81.56
2023-05-20T23:08:09.119Z,81.46
2023-05-20T23:10:36.980Z,81.66
2023-05-20T23:13:06.430Z,81.89
2023-05-20T23:15:34.472Z,82.36
2023-05-20T23:18:02.626Z,82.56
2023-05-20T23:20:30.545Z,82.29
2023-05-20T23:23:00.128Z,83.09
2023-05-20T23:25:31.483Z,83.25
2023-05-20T23:27:59.577Z,83.03
2023-05-20T23:30:29.531Z,83.13
2023-05-20T23:32:57.873Z,83.20
2023-05-20T23:35:25.783Z,83.01
2023-05-20T23:37:53.664Z,83.67
2023-05-20T23:40:21.609Z,83.74
2023-05-20T23:42:49.444Z,83.86
2023-05-20T23:45:17.408Z,83.79
2023-05-20T23:47:46.913Z,84.18
2023-05-20T23:50:14.935Z,84.40
2023-05-20T23:52:42.790Z,84.33
2023-05-20T23:55:14.271Z,84.88
2023-05-20T23:57:42.284Z,84.51
